createdAt,value
2022-07-25T00:01:44.029Z,2.00
2022-07-25T00:04:12.246Z,1.73
2022-07-25T00:06:39.792Z,1.92
2022-07-25T00:09:07.089Z,1.80
2022-07-25T00:11:34.018Z,2.10
2022-07-25T00:14:00.662Z,1.75
2022-07-25T00:16:27.450Z,1.85
2022-07-25T00:18:54.096Z,1.70
2022-07-25T00:21:20.925Z,1.95
2022-07-25T00:23:47.633Z,1.70
2022-07-25T00:26:14.561Z,2.03
2022-07-25T00:28:41.428Z,1.85
2022-07-25T00:31:08.124Z,1.70
2022-07-25T00:33:34.858Z,1.55
2022-07-25T00:36:01.582Z,1.75
2022-07-25T00:38:28.272Z,1.60
2022-07-25T00:40:55.699Z,1.70
2022-07-25T00:43:22.770Z,1.55
2022-07-25T00:45:49.496Z,1.83
2022-07-25T00:48:16.284Z,1.70
2022-07-25T00:50:43.399Z,1.92
2022-07-25T00:53:10.134Z,1.70
2022-07-25T00:55:37.405Z,1.60
2022-07-25T00:58:04.679Z,1.88
2022-07-25T01:00:31.544Z,1.67
2022-07-25T01:02:58.553Z,1.85
2022-07-25T01:05:25.490Z,1.50
2022-07-25T01:07:52.517Z,1.58
2022-07-25T01:10:19.287Z,1.92
2022-07-25T01:12:51.767Z,1.75
2022-07-25T01:15:20.001Z,1.83
2022-07-25T01:17:46.970Z,1.80
2022-07-25T01:20:18.545Z,1.40
2022-07-25T01:22:46.205Z,1.60
2022-07-25T01:25:14.189Z,1.80
2022-07-25T01:27:41.583Z,1.75
2022-07-25T01:30:11.233Z,1.77
2022-07-25T01:32:38.042Z,1.88
2022-07-25T01:35:06.074Z,1.80
2022-07-25T01:37:33.034Z,1.77
2022-07-25T01:39:59.921Z,1.90
2022-07-25T01:42:26.761Z,1.63
2022-07-25T01:44:53.556Z,1.60
2022-07-25T01:47:20.274Z,1.73
2022-07-25T01:49:47.015Z,1.90
2022-07-25T01:52:14.361Z,1.40
2022-07-25T01:54:41.486Z,1.88
2022-07-25T01:57:10.532Z,1.80
2022-07-25T01:59:40.587Z,2.10
2022-07-25T02:02:08.959Z,1.58
2022-07-25T02:04:36.875Z,1.90
2022-07-25T02:07:04.437Z,1.83
2022-07-25T02:09:33.146Z,1.90
2022-07-25T02:11:59.818Z,1.70
2022-07-25T02:14:26.474Z,1.98
2022-07-25T02:16:54.115Z,1.77
2022-07-25T02:19:20.897Z,2.00
2022-07-25T02:21:47.551Z,1.92
2022-07-25T02:24:14.458Z,2.25
2022-07-25T02:26:41.181Z,1.75
2022-07-25T02:29:07.825Z,1.75
2022-07-25T02:31:34.588Z,2.03
2022-07-25T02:34:01.455Z,1.98
2022-07-25T02:36:28.197Z,2.08
2022-07-25T02:38:54.849Z,2.35
2022-07-25T02:41:21.574Z,1.65
2022-07-25T02:43:48.217Z,1.80
2022-07-25T02:46:15.031Z,1.80
2022-07-25T02:48:41.994Z,2.00
2022-07-25T02:51:09.052Z,1.70
2022-07-25T02:53:56.138Z,1.80
2022-07-25T02:56:22.386Z,1.98
2022-07-25T02:58:50.265Z,2.03
2022-07-25T03:01:17.068Z,2.10
2022-07-25T03:03:43.995Z,1.70
2022-07-25T03:06:10.724Z,1.90
2022-07-25T03:08:37.503Z,1.73
2022-07-25T03:11:04.671Z,1.98
2022-07-25T03:13:33.068Z,2.00
2022-07-25T03:16:00.056Z,2.10
2022-07-25T03:18:26.707Z,1.90
2022-07-25T03:20:53.420Z,2.00
2022-07-25T03:23:20.078Z,2.00
2022-07-25T03:25:46.754Z,2.35
2022-07-25T03:28:13.461Z,2.20
2022-07-25T03:30:40.490Z,1.92
2022-07-25T03:33:07.149Z,2.20
2022-07-25T03:35:33.882Z,2.10
2022-07-25T03:38:02.010Z,2.10
2022-07-25T03:40:28.738Z,2.20
2022-07-25T03:42:55.473Z,2.15
2022-07-25T03:45:22.242Z,2.10
2022-07-25T03:47:48.877Z,1.70
2022-07-25T03:50:15.853Z,2.22
2022-07-25T03:52:42.640Z,2.30
2022-07-25T03:55:11.003Z,1.98
2022-07-25T03:57:38.571Z,1.98
2022-07-25T04:00:10.252Z,1.95
2022-07-25T04:02:38.115Z,1.85
2022-07-25T04:05:07.197Z,1.90
2022-07-25T04:07:34.445Z,2.10
2022-07-25T04:10:01.846Z,2.20
2022-07-25T04:12:28.734Z,2.15
2022-07-25T04:14:55.416Z,2.25
2022-07-25T04:17:22.164Z,2.13
2022-07-25T04:19:51.061Z,2.40
2022-07-25T04:22:17.705Z,2.10
2022-07-25T04:24:44.436Z,2.10
2022-07-25T04:27:11.046Z,1.80
2022-07-25T04:29:37.858Z,2.30
2022-07-25T04:32:05.175Z,2.20
2022-07-25T04:34:32.056Z,1.83
2022-07-25T04:36:58.675Z,2.53
2022-07-25T04:39:25.359Z,1.80
2022-07-25T04:41:52.115Z,1.90
2022-07-25T04:44:18.834Z,2.10
2022-07-25T04:46:45.460Z,2.35
2022-07-25T04:49:12.237Z,2.00
2022-07-25T04:51:39.063Z,2.20
2022-07-25T04:54:06.324Z,2.50
2022-07-25T04:56:33.223Z,2.40
2022-07-25T04:59:06.215Z,2.25
2022-07-25T05:01:33.891Z,2.00
2022-07-25T05:04:00.653Z,2.40
2022-07-25T05:06:27.324Z,2.28
2022-07-25T05:08:54.094Z,2.00
2022-07-25T05:11:20.742Z,2.00
2022-07-25T05:13:47.630Z,2.20
2022-07-25T05:16:14.495Z,2.13
2022-07-25T05:18:41.262Z,2.03
2022-07-25T05:21:13.316Z,2.00
2022-07-25T05:23:40.882Z,2.72
2022-07-25T05:26:07.634Z,2.20
2022-07-25T05:28:34.245Z,2.30
2022-07-25T05:31:00.966Z,2.45
2022-07-25T05:33:27.856Z,2.00
2022-07-25T05:35:54.718Z,2.15
2022-07-25T05:38:21.464Z,2.15
2022-07-25T05:40:49.012Z,2.20
2022-07-25T05:43:15.673Z,2.22
2022-07-25T05:45:42.474Z,2.30
2022-07-25T05:48:09.170Z,2.40
2022-07-25T05:50:38.950Z,2.08
2022-07-25T05:53:05.575Z,2.10
2022-07-25T05:55:32.639Z,2.05
2022-07-25T05:57:59.643Z,2.20
2022-07-25T06:00:29.403Z,1.98
2022-07-25T06:03:00.579Z,2.38
2022-07-25T06:05:27.460Z,2.45
2022-07-25T06:07:54.186Z,1.75
2022-07-25T06:10:21.350Z,2.25
2022-07-25T06:12:48.126Z,2.33
2022-07-25T06:15:22.614Z,1.92
2022-07-25T06:17:53.655Z,2.13
2022-07-25T06:20:20.504Z,1.90
2022-07-25T06:22:47.201Z,1.95
2022-07-25T06:25:14.993Z,2.15
2022-07-25T06:27:41.797Z,2.55
2022-07-25T06:30:19.193Z,2.30
2022-07-25T06:32:48.230Z,2.10
2022-07-25T06:35:15.302Z,2.10
2022-07-25T06:37:41.974Z,2.30
2022-07-25T06:40:09.240Z,2.15
2022-07-25T06:42:47.234Z,2.45
2022-07-25T06:45:15.204Z,2.50
2022-07-25T06:47:43.239Z,2.72
2022-07-25T06:50:13.047Z,2.83
2022-07-25T06:52:40.913Z,2.10
2022-07-25T06:55:09.485Z,2.50
2022-07-25T06:57:37.039Z,2.28
2022-07-25T07:00:08.058Z,2.72
2022-07-25T07:02:34.829Z,2.50
2022-07-25T07:05:01.835Z,2.60
2022-07-25T07:07:28.460Z,2.50
2022-07-25T07:09:55.144Z,2.70
2022-07-25T07:12:22.085Z,2.65
2022-07-25T07:14:48.866Z,2.67
2022-07-25T07:17:15.504Z,2.70
2022-07-25T07:19:44.484Z,2.58
2022-07-25T07:22:11.421Z,2.40
2022-07-25T07:24:44.296Z,2.78
2022-07-25T07:27:14.797Z,2.70
2022-07-25T07:29:42.020Z,2.38
2022-07-25T07:32:08.847Z,2.63
2022-07-25T07:34:35.521Z,2.83
2022-07-25T07:37:03.499Z,2.47
2022-07-25T07:39:30.182Z,2.50
2022-07-25T07:42:17.940Z,3.08
2022-07-25T07:45:04.320Z,3.03
2022-07-25T07:47:52.813Z,2.85
2022-07-25T07:50:28.109Z,3.30
2022-07-25T07:52:59.318Z,3.10
2022-07-25T07:55:44.925Z,2.65
2022-07-25T07:58:15.616Z,2.85
2022-07-25T08:00:43.776Z,2.80
2022-07-25T08:03:10.628Z,3.00
2022-07-25T08:05:40.810Z,3.03
2022-07-25T08:08:09.542Z,2.75
2022-07-25T08:10:38.777Z,2.95
2022-07-25T08:13:16.917Z,2.92
2022-07-25T08:15:46.417Z,2.95
2022-07-25T08:18:17.067Z,2.92
2022-07-25T08:20:48.575Z,3.03
2022-07-25T08:23:16.007Z,2.97
2022-07-25T08:25:43.470Z,3.13
2022-07-25T08:28:10.192Z,2.72
2022-07-25T08:30:38.717Z,2.80
2022-07-25T08:33:09.653Z,2.60
2022-07-25T08:35:36.654Z,3.10
2022-07-25T08:38:04.869Z,2.92
2022-07-25T08:40:32.573Z,3.03
2022-07-25T08:43:00.430Z,2.70
2022-07-25T08:45:28.772Z,3.10
2022-07-25T08:51:44.116Z,3.50
2022-07-25T08:54:11.236Z,3.05
2022-07-25T08:56:37.960Z,2.97
2022-07-25T08:59:10.202Z,2.80
2022-07-25T09:01:40.069Z,3.10
2022-07-25T09:04:10.167Z,3.00
2022-07-25T09:06:38.020Z,3.15
2022-07-25T09:09:05.188Z,3.20
2022-07-25T09:11:35.548Z,3.03
2022-07-25T09:14:08.847Z,3.58
2022-07-25T09:16:41.375Z,3.40
2022-07-25T09:19:12.595Z,3.42
2022-07-25T09:21:41.018Z,3.42
2022-07-25T09:24:16.743Z,3.60
2022-07-25T09:26:52.304Z,3.92
2022-07-25T09:29:25.693Z,3.58
2022-07-25T09:34:31.728Z,3.67
2022-07-25T09:36:58.819Z,3.80
2022-07-25T09:39:50.481Z,3.80
2022-07-25T09:42:29.798Z,3.55
2022-07-25T09:45:03.185Z,3.20
2022-07-25T09:49:57.703Z,3.90
2022-07-25T09:52:24.373Z,3.83
2022-07-25T09:54:51.210Z,4.40
2022-07-25T09:57:18.143Z,3.80
2022-07-25T09:59:44.788Z,3.88
2022-07-25T10:02:37.903Z,3.58
2022-07-25T10:05:51.547Z,4.15
2022-07-25T10:08:19.885Z,4.20
2022-07-25T10:10:46.781Z,3.70
2022-07-25T10:13:28.547Z,3.90
2022-07-25T10:15:55.628Z,3.70
2022-07-25T10:18:25.140Z,3.83
2022-07-25T10:20:54.910Z,4.22
2022-07-25T10:23:24.576Z,3.97
2022-07-25T10:26:13.314Z,3.88
2022-07-25T10:28:47.236Z,4.25
2022-07-25T10:31:21.788Z,4.03
2022-07-25T10:33:52.008Z,4.18
2022-07-25T10:36:20.589Z,4.25
2022-07-25T10:38:47.788Z,4.10
2022-07-25T10:41:17.025Z,4.22
2022-07-25T10:43:48.724Z,4.50
2022-07-25T10:46:19.543Z,4.45
2022-07-25T10:49:01.122Z,3.83
2022-07-25T10:51:31.184Z,4.13
2022-07-25T10:53:58.393Z,4.20
2022-07-25T10:56:29.162Z,4.50
2022-07-25T10:59:01.372Z,4.47
2022-07-25T11:01:33.403Z,4.40
2022-07-25T11:04:02.707Z,4.45
2022-07-25T11:06:35.369Z,4.63
2022-07-25T11:09:04.736Z,4.32
2022-07-25T11:11:40.542Z,4.43
2022-07-25T11:14:16.204Z,4.38
2022-07-25T11:16:43.989Z,4.60
2022-07-25T11:19:28.334Z,4.38
2022-07-25T11:22:00.638Z,4.20
2022-07-25T11:24:45.370Z,4.77
2022-07-25T11:27:33.382Z,4.43
2022-07-25T11:30:12.320Z,5.03
2022-07-25T11:32:43.293Z,4.13
2022-07-25T11:35:11.646Z,4.80
2022-07-25T11:37:40.633Z,4.38
2022-07-25T11:40:08.202Z,4.40
2022-07-25T11:42:44.240Z,4.80
2022-07-25T11:45:34.100Z,4.75
2022-07-25T11:48:08.056Z,4.70
2022-07-25T11:50:40.307Z,4.50
2022-07-25T11:53:11.217Z,5.13
2022-07-25T11:55:45.401Z,4.90
2022-07-25T11:58:13.643Z,4.75
2022-07-25T12:00:47.301Z,4.82
2022-07-25T12:03:19.857Z,4.60
2022-07-25T12:05:47.561Z,5.22
2022-07-25T12:08:16.335Z,4.30
2022-07-25T12:10:44.207Z,4.85
2022-07-25T12:13:25.108Z,5.43
2022-07-25T12:15:52.134Z,5.10
2022-07-25T12:18:19.039Z,5.05
2022-07-25T12:20:45.867Z,5.40
2022-07-25T12:23:13.566Z,4.80
2022-07-25T12:25:45.556Z,5.30
2022-07-25T12:28:13.130Z,4.55
2022-07-25T12:30:41.922Z,5.30
2022-07-25T12:33:08.940Z,5.40
2022-07-25T12:35:38.961Z,4.85
2022-07-25T12:38:05.860Z,5.18
2022-07-25T12:40:32.709Z,5.03
2022-07-25T12:42:59.533Z,4.80
2022-07-25T12:45:27.146Z,5.45
2022-07-25T12:47:54.253Z,5.15
2022-07-25T12:50:21.005Z,5.75
2022-07-25T12:52:48.137Z,5.35
2022-07-25T12:55:17.704Z,5.20
2022-07-25T12:57:45.075Z,5.38
2022-07-25T13:00:14.714Z,4.93
2022-07-25T13:02:41.594Z,5.18
2022-07-25T13:05:08.797Z,5.30
2022-07-25T13:07:35.483Z,4.70
2022-07-25T13:10:03.726Z,5.60
2022-07-25T13:12:30.929Z,5.22
2022-07-25T13:14:58.833Z,4.97
2022-07-25T13:17:27.776Z,5.43
2022-07-25T13:19:56.268Z,5.13
2022-07-25T13:22:23.722Z,4.88
2022-07-25T13:24:50.817Z,4.97
2022-07-25T13:27:22.063Z,4.97
2022-07-25T13:29:54.132Z,5.00
2022-07-25T13:32:22.294Z,4.90
2022-07-25T13:34:49.123Z,5.30
2022-07-25T13:37:15.778Z,4.93
2022-07-25T13:39:42.697Z,5.03
2022-07-25T13:42:09.972Z,4.63
2022-07-25T13:44:36.634Z,5.00
2022-07-25T13:47:03.445Z,4.25
2022-07-25T13:49:31.542Z,4.78
2022-07-25T13:51:58.206Z,5.45
2022-07-25T13:54:24.873Z,4.65
2022-07-25T13:56:51.602Z,5.40
2022-07-25T13:59:21.369Z,4.60
2022-07-25T14:01:49.570Z,5.20
2022-07-25T14:04:16.841Z,4.90
2022-07-25T14:06:46.518Z,4.88
2022-07-25T14:09:13.167Z,5.00
2022-07-25T14:11:39.916Z,5.32
2022-07-25T14:14:06.694Z,5.28
2022-07-25T14:16:34.393Z,5.20
2022-07-25T14:19:02.156Z,4.90
2022-07-25T14:21:29.194Z,4.88
2022-07-25T14:23:56.073Z,5.22
2022-07-25T14:26:22.916Z,5.15
2022-07-25T14:28:49.857Z,4.82
2022-07-25T14:31:16.638Z,4.72
2022-07-25T14:33:43.366Z,5.18
2022-07-25T14:36:10.626Z,4.82
2022-07-25T14:38:37.303Z,5.10
2022-07-25T14:41:09.211Z,4.80
2022-07-25T14:43:39.821Z,4.50
2022-07-25T14:46:08.030Z,4.80
2022-07-25T14:48:37.170Z,4.50
2022-07-25T14:51:04.203Z,4.70
2022-07-25T14:53:30.966Z,4.57
2022-07-25T14:55:57.682Z,4.93
2022-07-25T14:58:24.397Z,4.22
2022-07-25T15:00:51.107Z,5.10
2022-07-25T15:03:17.853Z,4.68
2022-07-25T15:05:45.880Z,4.72
2022-07-25T15:08:14.181Z,4.55
2022-07-25T15:10:41.205Z,4.22
2022-07-25T15:13:30.085Z,4.22
2022-07-25T15:15:56.035Z,4.22
2022-07-25T15:18:23.035Z,4.20
2022-07-25T15:20:51.681Z,4.30
2022-07-25T15:23:18.411Z,4.43
2022-07-25T15:26:03.601Z,4.50
2022-07-25T15:28:35.261Z,4.30
2022-07-25T15:31:02.651Z,4.40
2022-07-25T15:33:29.516Z,4.63
2022-07-25T15:35:56.417Z,4.40
2022-07-25T15:38:23.505Z,4.40
2022-07-25T15:40:50.183Z,4.20
2022-07-25T15:43:17.081Z,4.45
2022-07-25T15:45:45.903Z,5.05
2022-07-25T15:48:14.984Z,4.63
2022-07-25T15:50:43.636Z,4.40
2022-07-25T15:53:11.282Z,4.60
2022-07-25T15:55:39.214Z,4.63
2022-07-25T15:58:06.489Z,4.78
2022-07-25T16:00:33.806Z,4.78
2022-07-25T16:03:00.543Z,4.90
2022-07-25T16:05:27.309Z,4.70
2022-07-25T16:07:54.011Z,5.28
2022-07-25T16:10:20.685Z,5.18
2022-07-25T16:12:47.411Z,4.95
2022-07-25T16:15:14.198Z,5.22
2022-07-25T16:17:40.896Z,6.00
2022-07-25T16:20:09.882Z,6.03
2022-07-25T16:22:36.630Z,5.97
2022-07-25T16:25:04.240Z,5.53
2022-07-25T16:27:30.921Z,5.78
2022-07-25T16:29:57.685Z,6.22
2022-07-25T16:32:24.578Z,7.32
2022-07-25T16:34:51.393Z,6.57
2022-07-25T16:37:18.126Z,5.97
2022-07-25T16:39:44.852Z,5.72
2022-07-25T16:42:11.551Z,5.78
2022-07-25T16:44:38.278Z,6.22
2022-07-25T16:47:05.058Z,5.43
2022-07-25T16:49:31.781Z,5.75
2022-07-25T16:51:58.409Z,5.55
2022-07-25T16:54:25.481Z,5.38
2022-07-25T16:56:54.879Z,5.18
2022-07-25T16:59:22.566Z,5.38
2022-07-25T17:01:49.579Z,5.10
2022-07-25T17:04:16.503Z,5.10
2022-07-25T17:06:43.158Z,4.70
2022-07-25T17:09:10.359Z,4.97
2022-07-25T17:11:37.230Z,5.32
2022-07-25T17:14:04.471Z,4.93
2022-07-25T17:16:32.169Z,5.18
2022-07-25T17:18:58.969Z,4.78
2022-07-25T17:21:25.670Z,4.75
2022-07-25T17:23:53.160Z,4.80
2022-07-25T17:26:20.898Z,4.68
2022-07-25T17:28:47.900Z,4.55
2022-07-25T17:31:14.981Z,4.72
2022-07-25T17:33:41.953Z,4.45
2022-07-25T17:36:09.312Z,4.40
2022-07-25T17:38:37.131Z,4.97
2022-07-25T17:41:04.466Z,4.15
2022-07-25T17:43:31.159Z,4.63
2022-07-25T17:45:57.852Z,5.05
2022-07-25T17:48:24.583Z,4.80
2022-07-25T17:50:52.310Z,4.88
2022-07-25T17:53:19.112Z,5.03
2022-07-25T17:55:46.537Z,5.93
2022-07-25T17:58:13.591Z,5.78
2022-07-25T18:00:40.459Z,5.35
2022-07-25T18:03:07.292Z,5.93
2022-07-25T18:05:34.108Z,5.80
2022-07-25T18:08:02.692Z,6.20
2022-07-25T18:10:29.708Z,6.00
2022-07-25T18:12:56.329Z,6.20
2022-07-25T18:15:23.014Z,5.45
2022-07-25T18:17:49.718Z,6.00
2022-07-25T18:20:17.847Z,5.00
2022-07-25T18:22:45.347Z,5.65
2022-07-25T18:25:13.305Z,5.30
2022-07-25T18:27:44.699Z,5.55
2022-07-25T18:30:12.023Z,5.20
2022-07-25T18:32:38.844Z,5.35
2022-07-25T18:35:06.782Z,4.90
2022-07-25T18:37:33.592Z,5.00
2022-07-25T18:40:00.394Z,5.38
2022-07-25T18:42:29.968Z,5.38
2022-07-25T18:44:57.158Z,5.75
2022-07-25T18:47:26.391Z,6.30
2022-07-25T18:49:57.705Z,6.40
2022-07-25T18:52:24.801Z,6.22
2022-07-25T18:54:51.484Z,5.68
2022-07-25T18:57:18.298Z,6.65
2022-07-25T18:59:45.152Z,6.53
2022-07-25T19:02:11.965Z,7.05
2022-07-25T19:04:38.689Z,6.85
2022-07-25T19:07:05.417Z,5.85
2022-07-25T19:09:32.134Z,6.93
2022-07-25T19:11:58.977Z,6.38
2022-07-25T19:14:27.308Z,6.78
2022-07-25T19:16:54.648Z,7.72
2022-07-25T19:19:21.412Z,6.82
2022-07-25T19:21:48.716Z,7.00
2022-07-25T19:24:15.463Z,6.93
2022-07-25T19:26:42.592Z,7.13
2022-07-25T19:29:09.975Z,7.00
2022-07-25T19:31:38.160Z,7.68
2022-07-25T19:34:06.611Z,7.50
2022-07-25T19:36:34.045Z,7.30
2022-07-25T19:39:01.254Z,7.25
2022-07-25T19:41:28.396Z,7.22
2022-07-25T19:43:55.290Z,7.63
2022-07-25T19:46:21.947Z,7.85
2022-07-25T19:48:48.856Z,7.38
2022-07-25T19:51:15.672Z,7.90
2022-07-25T19:53:42.336Z,8.55
2022-07-25T19:56:09.210Z,7.90
2022-07-25T19:58:38.876Z,8.75
2022-07-25T20:01:05.782Z,8.10
2022-07-25T20:03:32.558Z,8.25
2022-07-25T20:05:59.188Z,8.15
2022-07-25T20:08:25.825Z,8.15
2022-07-25T20:10:52.766Z,7.95
2022-07-25T20:13:19.785Z,8.52
2022-07-25T20:15:46.534Z,8.63
2022-07-25T20:18:18.906Z,9.52
2022-07-25T20:20:47.039Z,9.50
2022-07-25T20:23:13.777Z,8.35
2022-07-25T20:25:40.474Z,8.65
2022-07-25T20:28:07.182Z,8.10
2022-07-25T20:30:35.101Z,8.50
2022-07-25T20:33:05.319Z,8.15
2022-07-25T20:35:36.534Z,8.23
2022-07-25T20:38:03.493Z,8.77
2022-07-25T20:40:36.328Z,8.27
2022-07-25T20:43:04.502Z,6.60
2022-07-25T20:45:31.257Z,6.45
2022-07-25T20:47:58.044Z,7.07
2022-07-25T20:50:24.927Z,6.55
2022-07-25T20:52:51.870Z,6.32
2022-07-25T20:55:18.596Z,6.07
2022-07-25T20:57:50.212Z,6.80
2022-07-25T21:00:18.033Z,6.75
2022-07-25T21:02:44.968Z,6.70
2022-07-25T21:05:11.758Z,7.18
2022-07-25T21:07:38.371Z,6.88
2022-07-25T21:10:05.394Z,7.00
2022-07-25T21:12:33.063Z,6.80
2022-07-25T21:15:01.208Z,7.13
2022-07-25T21:17:28.194Z,7.07
2022-07-25T21:19:54.994Z,7.35
2022-07-25T21:22:21.862Z,6.75
2022-07-25T21:24:49.616Z,6.90
2022-07-25T21:27:17.048Z,6.07
2022-07-25T21:29:44.335Z,6.40
2022-07-25T21:32:13.613Z,6.35
2022-07-25T21:34:41.508Z,6.40
2022-07-25T21:37:08.525Z,6.75
2022-07-25T21:39:35.365Z,6.93
2022-07-25T21:42:02.211Z,7.05
2022-07-25T21:44:31.487Z,7.93
2022-07-25T21:46:58.199Z,6.22
2022-07-25T21:49:43.645Z,6.53
2022-07-25T21:52:13.911Z,7.82
2022-07-25T21:54:41.892Z,7.15
2022-07-25T21:57:13.072Z,7.50
2022-07-25T21:59:41.925Z,7.25
2022-07-25T22:02:08.674Z,7.97
2022-07-25T22:04:35.532Z,7.15
2022-07-25T22:07:02.766Z,8.15
2022-07-25T22:09:29.619Z,7.50
2022-07-25T22:11:57.578Z,7.18
2022-07-25T22:14:24.507Z,7.65
2022-07-25T22:16:51.238Z,7.10
2022-07-25T22:19:21.898Z,7.78
2022-07-25T22:21:49.470Z,8.13
2022-07-25T22:24:16.465Z,7.85
2022-07-25T22:26:43.226Z,7.93
2022-07-25T22:29:10.548Z,7.75
2022-07-25T22:31:39.193Z,7.95
2022-07-25T22:34:06.750Z,7.43
2022-07-25T22:36:33.598Z,7.47
2022-07-25T22:39:00.265Z,7.65
2022-07-25T22:41:26.960Z,7.40
2022-07-25T22:43:59.043Z,7.18
2022-07-25T22:46:28.270Z,7.85
2022-07-25T22:48:55.314Z,7.28
2022-07-25T22:51:22.349Z,7.30
2022-07-25T22:53:49.250Z,7.28
2022-07-25T22:56:16.831Z,7.13
2022-07-25T22:58:43.531Z,7.43
2022-07-25T23:01:12.633Z,7.22
2022-07-25T23:03:40.771Z,7.28
2022-07-25T23:06:07.662Z,7.07
2022-07-25T23:08:34.413Z,7.55
2022-07-25T23:11:01.164Z,7.20
2022-07-25T23:13:27.825Z,7.40
2022-07-25T23:15:54.534Z,6.82
2022-07-25T23:18:21.302Z,7.57
2022-07-25T23:20:47.950Z,6.75
2022-07-25T23:23:14.667Z,7.70
2022-07-25T23:25:41.394Z,7.45
2022-07-25T23:28:08.103Z,7.60
2022-07-25T23:30:40.052Z,7.55
2022-07-25T23:33:07.920Z,6.90
2022-07-25T23:35:35.453Z,7.25
2022-07-25T23:38:02.191Z,7.38
2022-07-25T23:40:29.280Z,7.22
2022-07-25T23:42:55.970Z,7.68
2022-07-25T23:45:22.976Z,8.13
2022-07-25T23:47:55.101Z,7.60
2022-07-25T23:50:23.096Z,7.80
2022-07-25T23:52:50.320Z,8.52
2022-07-25T23:55:17.329Z,9.18
2022-07-25T23:57:44.101Z,8.60
